createdAt,value
2023-02-17T00:02:00.733Z,11.83
2023-02-17T00:05:08.131Z,12.88
2023-02-17T00:08:13.876Z,11.78
2023-02-17T00:11:20.725Z,19.48
2023-02-17T00:14:27.334Z,13.65
2023-02-17T00:17:33.314Z,12.73
2023-02-17T00:20:40.137Z,11.60
2023-02-17T00:23:46.580Z,15.13
2023-02-17T00:26:45.672Z,13.60
2023-02-17T00:29:38.841Z,10.90
2023-02-17T00:32:44.075Z,14.05
2023-02-17T00:35:55.552Z,14.13
2023-02-17T00:39:01.406Z,14.65
2023-02-17T00:42:06.599Z,15.38
2023-02-17T00:45:12.165Z,24.67
2023-02-17T00:48:19.482Z,31.23
2023-02-17T00:51:25.257Z,32.73
2023-02-17T00:54:30.608Z,31.05
2023-02-17T00:57:38.814Z,25.82
2023-02-17T01:00:43.722Z,34.50
2023-02-17T01:03:49.388Z,29.10
2023-02-17T01:06:55.283Z,22.13
2023-02-17T01:10:02.857Z,18.37
2023-02-17T01:13:08.887Z,18.12
2023-02-17T01:16:14.501Z,21.90
2023-02-17T01:19:22.257Z,30.08
2023-02-17T01:22:28.493Z,21.85
2023-02-17T01:25:35.172Z,16.23
2023-02-17T01:28:42.655Z,20.45
2023-02-17T01:31:48.069Z,20.32
2023-02-17T01:34:55.405Z,16.27
2023-02-17T01:38:00.898Z,16.25
2023-02-17T01:41:07.016Z,16.82
2023-02-17T01:44:36.315Z,15.60
2023-02-17T01:47:43.328Z,15.10
2023-02-17T01:50:54.528Z,13.98
2023-02-17T01:53:58.473Z,14.20
2023-02-17T01:57:04.659Z,18.37
2023-02-17T02:00:10.555Z,18.12
2023-02-17T02:03:16.249Z,20.08
2023-02-17T02:06:29.585Z,18.98
2023-02-17T02:09:47.138Z,20.65
2023-02-17T02:12:49.289Z,19.02
2023-02-17T02:15:46.195Z,23.22
2023-02-17T02:19:30.351Z,20.37
2023-02-17T02:22:54.850Z,29.35
2023-02-17T02:26:17.824Z,36.63
2023-02-17T02:29:50.305Z,33.55
2023-02-17T02:33:07.189Z,32.88
2023-02-17T02:36:46.599Z,46.15
2023-02-17T02:39:55.019Z,57.08
2023-02-17T02:43:03.126Z,71.17
2023-02-17T02:46:09.741Z,56.68
2023-02-17T02:49:15.979Z,55.58
2023-02-17T02:52:31.542Z,48.73
2023-02-17T02:55:58.359Z,40.75
2023-02-17T02:59:37.067Z,41.10
2023-02-17T03:02:58.297Z,24.60
2023-02-17T03:06:35.078Z,22.73
2023-02-17T03:09:42.275Z,23.67
2023-02-17T03:12:48.130Z,20.35
2023-02-17T03:15:54.118Z,17.20
2023-02-17T03:19:00.652Z,17.42
2023-02-17T03:22:31.195Z,15.28
2023-02-17T03:25:36.629Z,14.53
2023-02-17T03:28:43.223Z,12.55
2023-02-17T03:31:50.211Z,17.07
2023-02-17T03:34:56.845Z,12.63
2023-02-17T03:38:03.460Z,16.17
2023-02-17T03:41:09.834Z,17.15
2023-02-17T03:44:14.189Z,15.10
2023-02-17T03:47:20.733Z,16.15
2023-02-17T03:50:27.552Z,19.10
2023-02-17T03:53:34.130Z,17.95
2023-02-17T03:56:34.508Z,15.88
2023-02-17T03:59:40.876Z,19.35
2023-02-17T04:02:46.889Z,16.60
2023-02-17T04:05:52.399Z,17.32
2023-02-17T04:08:56.592Z,15.80
2023-02-17T04:12:02.516Z,23.57
2023-02-17T04:15:09.688Z,19.98
2023-02-17T04:18:15.949Z,18.27
2023-02-17T04:21:22.521Z,18.37
2023-02-17T04:24:28.720Z,19.82
2023-02-17T04:27:34.692Z,18.67
2023-02-17T04:30:40.536Z,13.15
2023-02-17T04:33:40.583Z,14.95
2023-02-17T04:36:46.668Z,13.22
2023-02-17T04:39:53.348Z,16.75
2023-02-17T04:42:59.378Z,15.78
2023-02-17T04:46:05.716Z,20.10
2023-02-17T04:49:13.150Z,15.35
2023-02-17T04:52:18.465Z,16.45
2023-02-17T04:55:24.673Z,18.05
2023-02-17T04:58:30.491Z,16.02
2023-02-17T05:01:36.309Z,18.12
2023-02-17T05:04:41.410Z,17.15
2023-02-17T05:07:47.290Z,18.70
2023-02-17T05:10:54.223Z,16.17
2023-02-17T05:14:01.050Z,14.18
2023-02-17T05:17:06.866Z,13.20
2023-02-17T05:20:13.211Z,18.35
2023-02-17T05:23:19.487Z,12.50
2023-02-17T05:26:26.109Z,14.68
2023-02-17T05:29:32.502Z,12.93
2023-02-17T05:32:38.702Z,11.60
2023-02-17T05:35:44.017Z,15.53
2023-02-17T05:38:53.525Z,14.78
2023-02-17T05:41:59.376Z,11.85
2023-02-17T05:45:05.289Z,17.00
2023-02-17T05:48:10.820Z,17.12
2023-02-17T05:51:19.139Z,14.00
2023-02-17T05:54:25.212Z,15.72
2023-02-17T05:57:31.641Z,17.02
2023-02-17T06:00:37.608Z,12.05
2023-02-17T06:03:43.165Z,15.25
2023-02-17T06:06:42.842Z,15.65
2023-02-17T06:09:30.013Z,15.65
2023-02-17T06:12:22.621Z,14.13
2023-02-17T06:15:14.713Z,14.93
2023-02-17T06:18:20.360Z,12.20
2023-02-17T06:21:26.252Z,14.35
2023-02-17T06:24:32.252Z,13.48
2023-02-17T06:27:39.453Z,12.45
2023-02-17T06:30:46.095Z,10.63
2023-02-17T06:33:53.089Z,14.80
2023-02-17T06:36:59.547Z,18.90
2023-02-17T06:40:04.846Z,9.55
2023-02-17T06:43:12.078Z,10.78
2023-02-17T06:46:11.759Z,9.93
2023-02-17T06:49:16.982Z,11.60
2023-02-17T06:52:23.586Z,8.90
2023-02-17T06:55:29.608Z,13.22
2023-02-17T06:58:36.198Z,11.25
2023-02-17T07:01:40.783Z,10.23
2023-02-17T07:04:47.539Z,8.50
2023-02-17T07:07:48.026Z,9.60
2023-02-17T07:10:55.411Z,12.68
2023-02-17T07:14:01.463Z,10.50
2023-02-17T07:17:07.204Z,7.70
2023-02-17T07:20:13.737Z,10.38
2023-02-17T07:23:19.494Z,11.53
2023-02-17T07:26:26.131Z,11.25
2023-02-17T07:29:31.078Z,13.08
2023-02-17T07:32:37.490Z,14.23
2023-02-17T07:35:43.746Z,11.68
2023-02-17T07:38:50.088Z,9.88
2023-02-17T07:41:56.046Z,10.45
2023-02-17T07:45:05.654Z,12.23
2023-02-17T07:48:10.993Z,16.60
2023-02-17T07:51:32.743Z,10.00
2023-02-17T07:54:39.163Z,8.78
2023-02-17T07:57:38.952Z,14.85
2023-02-17T08:00:25.914Z,14.58
2023-02-17T08:03:18.019Z,14.45
2023-02-17T08:09:49.429Z,18.70
2023-02-17T08:13:08.034Z,13.98
2023-02-17T08:16:14.291Z,11.75
2023-02-17T08:19:20.641Z,11.12
2023-02-17T08:22:26.368Z,12.60
2023-02-17T08:25:33.178Z,11.83
2023-02-17T08:28:39.906Z,14.98
2023-02-17T08:31:46.975Z,7.12
2023-02-17T08:34:52.530Z,12.85
2023-02-17T08:37:58.135Z,10.98
2023-02-17T08:41:03.353Z,7.67
2023-02-17T08:44:09.405Z,12.68
2023-02-17T08:47:16.138Z,9.38
2023-02-17T08:50:23.948Z,21.17
2023-02-17T08:53:22.840Z,8.35
2023-02-17T08:56:29.774Z,12.63
2023-02-17T08:59:35.597Z,10.93
2023-02-17T09:02:43.749Z,12.25
2023-02-17T09:05:49.979Z,8.48
2023-02-17T09:08:56.313Z,12.75
2023-02-17T09:12:03.370Z,9.38
2023-02-17T09:15:11.644Z,11.90
2023-02-17T09:18:17.449Z,10.05
2023-02-17T09:21:27.354Z,12.55
2023-02-17T09:24:34.136Z,6.67
2023-02-17T09:27:40.624Z,11.75
2023-02-17T09:30:47.517Z,7.22
2023-02-17T09:33:54.888Z,8.88
2023-02-17T09:37:00.405Z,10.75
2023-02-17T09:40:09.666Z,11.75
2023-02-17T09:43:15.567Z,8.73
2023-02-17T09:46:26.045Z,9.55
2023-02-17T09:49:34.033Z,8.33
2023-02-17T09:52:49.153Z,10.13
2023-02-17T09:56:00.709Z,11.22
2023-02-17T09:59:12.647Z,11.15
2023-02-17T10:02:25.065Z,16.90
2023-02-17T10:05:34.228Z,11.70
2023-02-17T10:08:44.805Z,12.15
2023-02-17T10:12:12.973Z,13.72
2023-02-17T10:15:25.614Z,19.25
2023-02-17T10:18:47.635Z,11.05
2023-02-17T10:21:57.576Z,11.00
2023-02-17T10:25:10.838Z,11.00
2023-02-17T10:28:26.036Z,7.78
2023-02-17T10:31:49.678Z,15.83
2023-02-17T10:35:10.124Z,9.73
2023-02-17T10:41:29.921Z,10.10
2023-02-17T10:44:38.456Z,14.45
2023-02-17T10:47:47.329Z,10.40
2023-02-17T10:50:53.284Z,13.62
2023-02-17T10:54:06.168Z,10.15
2023-02-17T10:57:13.824Z,15.30
2023-02-17T11:00:24.876Z,11.63
2023-02-17T11:03:39.800Z,11.35
2023-02-17T11:06:45.875Z,12.37
2023-02-17T11:09:55.903Z,18.27
2023-02-17T11:13:04.752Z,18.48
2023-02-17T11:16:13.272Z,18.73
2023-02-17T11:19:19.078Z,17.25
2023-02-17T11:22:59.055Z,12.88
2023-02-17T11:26:18.965Z,17.48
2023-02-17T11:29:32.110Z,21.30
2023-02-17T11:32:43.257Z,23.98
2023-02-17T11:36:01.567Z,31.33
2023-02-17T11:39:09.155Z,31.85
2023-02-17T11:42:16.303Z,26.05
2023-02-17T11:45:34.646Z,26.55
2023-02-17T11:49:06.644Z,27.48
2023-02-17T11:52:34.250Z,28.15
2023-02-17T11:56:06.478Z,33.42
2023-02-17T11:59:29.791Z,23.02
2023-02-17T12:03:18.442Z,20.95
2023-02-17T12:07:03.997Z,24.92
2023-02-17T12:10:41.127Z,22.93
2023-02-17T12:14:17.373Z,23.25
2023-02-17T12:18:12.484Z,20.52
2023-02-17T12:21:43.217Z,18.15
2023-02-17T12:25:19.789Z,16.77
2023-02-17T12:28:45.855Z,13.93
2023-02-17T12:32:21.150Z,13.05
2023-02-17T12:36:12.780Z,13.03
2023-02-17T12:39:40.532Z,15.15
2023-02-17T12:42:59.946Z,15.23
2023-02-17T12:46:05.990Z,14.05
2023-02-17T12:49:17.280Z,14.93
2023-02-17T12:52:42.531Z,12.73
2023-02-17T12:55:58.212Z,15.32
2023-02-17T12:59:06.051Z,10.13
2023-02-17T13:02:28.500Z,19.23
2023-02-17T13:05:41.357Z,13.58
2023-02-17T13:08:51.849Z,12.40
2023-02-17T13:11:57.226Z,13.03
2023-02-17T13:15:19.724Z,13.85
2023-02-17T13:18:40.122Z,13.50
2023-02-17T13:21:47.085Z,8.55
2023-02-17T13:24:54.301Z,12.35
2023-02-17T13:28:00.846Z,12.65
2023-02-17T13:31:07.316Z,9.38
2023-02-17T13:34:13.355Z,10.03
2023-02-17T13:37:40.803Z,9.40
2023-02-17T13:44:50.623Z,8.18
2023-02-17T13:47:56.337Z,9.73
2023-02-17T13:51:08.888Z,12.70
2023-02-17T13:54:22.489Z,7.25
2023-02-17T13:57:44.419Z,6.60
2023-02-17T14:00:50.159Z,8.93
2023-02-17T14:04:06.790Z,8.25
2023-02-17T14:07:14.052Z,9.73
2023-02-17T14:10:21.782Z,12.88
2023-02-17T14:13:27.520Z,11.65
2023-02-17T14:16:48.220Z,10.90
2023-02-17T14:23:25.971Z,11.65
2023-02-17T14:26:51.214Z,13.72
2023-02-17T14:30:05.212Z,12.47
2023-02-17T14:33:31.404Z,12.68
2023-02-17T14:36:50.040Z,13.32
2023-02-17T14:39:49.202Z,11.18
2023-02-17T14:42:47.988Z,10.00
2023-02-17T14:45:53.574Z,10.82
2023-02-17T14:49:02.862Z,10.93
2023-02-17T14:52:09.621Z,10.60
2023-02-17T14:55:16.422Z,14.95
2023-02-17T14:58:27.557Z,15.00
2023-02-17T15:01:35.706Z,21.45
2023-02-17T15:04:41.789Z,13.10
2023-02-17T15:07:47.201Z,14.60
2023-02-17T15:10:54.232Z,24.00
2023-02-17T15:14:00.326Z,15.85
2023-02-17T15:17:06.403Z,25.43
2023-02-17T15:20:12.169Z,17.55
2023-02-17T15:23:17.762Z,20.95
2023-02-17T15:26:25.208Z,28.00
2023-02-17T15:29:36.185Z,24.05
2023-02-17T15:32:43.168Z,18.25
2023-02-17T15:35:48.784Z,18.30
2023-02-17T15:38:56.491Z,16.00
2023-02-17T15:42:02.284Z,16.67
2023-02-17T15:45:08.159Z,23.95
2023-02-17T15:48:26.308Z,26.73
2023-02-17T15:51:33.445Z,20.15
2023-02-17T15:54:39.443Z,19.90
2023-02-17T15:57:47.116Z,24.23
2023-02-17T16:00:56.514Z,29.05
2023-02-17T16:04:02.459Z,25.08
2023-02-17T16:07:11.477Z,30.40
2023-02-17T16:10:17.224Z,18.60
2023-02-17T16:13:26.691Z,19.52
2023-02-17T16:16:40.963Z,16.87
2023-02-17T16:19:47.740Z,18.20
2023-02-17T16:22:54.131Z,21.35
2023-02-17T16:26:00.048Z,21.95
2023-02-17T16:29:05.676Z,28.98
2023-02-17T16:32:11.478Z,24.27
2023-02-17T16:35:17.383Z,22.87
2023-02-17T16:38:32.736Z,28.50
2023-02-17T16:41:37.912Z,23.67
2023-02-17T16:44:43.006Z,24.35
2023-02-17T16:47:49.281Z,22.07
2023-02-17T16:50:54.317Z,22.67
2023-02-17T16:54:01.085Z,27.48
2023-02-17T16:57:07.727Z,24.23
2023-02-17T17:00:13.066Z,29.48
2023-02-17T17:03:19.233Z,23.00
2023-02-17T17:06:40.313Z,26.07
2023-02-17T17:10:06.834Z,23.45
2023-02-17T17:12:55.310Z,27.48
2023-02-17T17:16:04.097Z,31.95
2023-02-17T17:19:10.417Z,24.80
2023-02-17T17:22:15.692Z,27.07
2023-02-17T17:25:20.709Z,30.50
2023-02-17T17:28:31.684Z,112.97
2023-02-17T17:31:38.452Z,133.27
2023-02-17T17:34:45.067Z,27.98
2023-02-17T17:37:51.723Z,35.23
2023-02-17T17:41:00.365Z,48.45
2023-02-17T17:44:06.336Z,48.42
2023-02-17T17:47:18.324Z,52.78
2023-02-17T17:50:24.505Z,39.45
2023-02-17T17:53:30.305Z,32.75
2023-02-17T17:56:38.393Z,28.40
2023-02-17T17:59:44.046Z,35.85
2023-02-17T18:02:50.803Z,31.07
2023-02-17T18:05:56.374Z,67.12
2023-02-17T18:08:51.751Z,55.63
2023-02-17T18:11:57.068Z,57.65
2023-02-17T18:15:08.623Z,59.60
2023-02-17T18:18:07.238Z,34.23
2023-02-17T18:21:12.205Z,33.42
2023-02-17T18:24:28.561Z,32.60
2023-02-17T18:27:34.757Z,37.85
2023-02-17T18:30:41.481Z,48.50
2023-02-17T18:33:47.970Z,40.12
2023-02-17T18:36:55.031Z,66.60
2023-02-17T18:40:01.342Z,75.80
2023-02-17T18:43:07.487Z,55.28
2023-02-17T18:46:13.454Z,48.92
2023-02-17T18:49:19.068Z,66.30
2023-02-17T18:52:24.776Z,52.93
2023-02-17T18:55:31.184Z,39.50
2023-02-17T18:58:36.801Z,50.05
2023-02-17T19:01:49.548Z,58.45
2023-02-17T19:04:55.088Z,54.40
2023-02-17T19:08:00.439Z,57.95
2023-02-17T19:11:07.150Z,52.08
2023-02-17T19:14:15.062Z,36.38
2023-02-17T19:17:24.807Z,55.17
2023-02-17T19:20:31.185Z,86.08
2023-02-17T19:23:37.389Z,57.62
2023-02-17T19:26:42.702Z,67.37
2023-02-17T19:29:49.015Z,66.50
2023-02-17T19:32:55.103Z,65.30
2023-02-17T19:36:00.760Z,44.83
2023-02-17T19:39:06.778Z,59.85
2023-02-17T19:42:12.384Z,52.62
2023-02-17T19:45:18.424Z,51.30
2023-02-17T19:48:24.711Z,60.00
2023-02-17T19:51:24.358Z,95.10
2023-02-17T19:54:31.203Z,66.72
2023-02-17T19:57:36.547Z,69.20
2023-02-17T20:00:42.662Z,57.95
2023-02-17T20:03:48.539Z,72.27
2023-02-17T20:06:56.836Z,58.28
2023-02-17T20:10:03.538Z,92.65
2023-02-17T20:13:11.285Z,58.23
2023-02-17T20:16:20.460Z,40.17
2023-02-17T20:19:26.574Z,68.37
2023-02-17T20:22:32.358Z,54.38
2023-02-17T20:25:38.200Z,52.80
2023-02-17T20:28:44.902Z,59.03
2023-02-17T20:31:51.371Z,73.65
2023-02-17T20:34:57.359Z,65.17
2023-02-17T20:38:04.072Z,41.85
2023-02-17T20:41:10.627Z,69.00
2023-02-17T20:44:16.865Z,70.78
2023-02-17T20:47:22.272Z,77.03
2023-02-17T20:50:32.882Z,79.47
2023-02-17T20:53:32.476Z,67.60
2023-02-17T20:59:44.046Z,98.65
2023-02-17T21:02:50.181Z,48.33
2023-02-17T21:05:57.479Z,56.65
2023-02-17T21:09:06.692Z,62.38
2023-02-17T21:12:14.322Z,47.48
2023-02-17T21:15:20.093Z,53.85
2023-02-17T21:18:19.100Z,53.65
2023-02-17T21:21:24.614Z,57.62
2023-02-17T21:24:30.470Z,60.60
2023-02-17T21:27:35.837Z,47.43
2023-02-17T21:30:42.110Z,68.10
2023-02-17T21:33:50.138Z,72.03
2023-02-17T21:36:56.354Z,54.77
2023-02-17T21:40:02.622Z,47.20
2023-02-17T21:43:25.911Z,78.10
2023-02-17T21:46:32.698Z,65.35
2023-02-17T21:49:37.575Z,52.20
2023-02-17T21:52:43.053Z,55.92
2023-02-17T21:55:48.644Z,56.83
2023-02-17T21:58:54.965Z,41.40
2023-02-17T22:02:00.702Z,50.08
2023-02-17T22:05:11.351Z,49.23
2023-02-17T22:08:17.295Z,43.28
2023-02-17T22:11:31.924Z,43.87
2023-02-17T22:14:37.546Z,44.77
2023-02-17T22:17:44.266Z,40.83
2023-02-17T22:20:50.922Z,41.23
2023-02-17T22:23:56.598Z,45.25
2023-02-17T22:27:03.502Z,39.53
2023-02-17T22:30:11.308Z,46.77
2023-02-17T22:33:17.957Z,75.25
2023-02-17T22:36:26.616Z,57.93
2023-02-17T22:39:32.482Z,70.90
2023-02-17T22:42:38.519Z,52.53
2023-02-17T22:45:44.225Z,56.98
2023-02-17T22:48:52.295Z,64.07
2023-02-17T22:51:58.513Z,51.73
2023-02-17T22:55:03.261Z,53.60
2023-02-17T22:58:10.271Z,53.78
2023-02-17T23:01:26.187Z,45.30
2023-02-17T23:04:33.225Z,35.20
2023-02-17T23:07:39.758Z,48.98
2023-02-17T23:10:45.905Z,41.98
2023-02-17T23:13:51.193Z,40.58
2023-02-17T23:16:56.889Z,42.90
2023-02-17T23:20:08.581Z,43.17
2023-02-17T23:23:15.909Z,42.50
2023-02-17T23:26:22.931Z,48.50
2023-02-17T23:29:30.501Z,42.75
2023-02-17T23:32:38.051Z,38.63
2023-02-17T23:35:44.451Z,50.30
2023-02-17T23:38:54.098Z,40.12
2023-02-17T23:42:04.874Z,52.67
2023-02-17T23:45:17.119Z,47.60
2023-02-17T23:48:28.813Z,47.58
2023-02-17T23:51:42.482Z,51.00
2023-02-17T23:54:50.835Z,46.48
2023-02-17T23:57:59.336Z,59.60
